sensor_id;sensor_type;location;lat;lon;timestamp;temperature;humidity
16491;DHT22;8356;51.214;3.270;2022-10-26T00:02:14;410.40;2355.20
16491;DHT22;8356;51.214;3.270;2022-10-26T00:04:40;410.40;2355.20
16491;DHT22;8356;51.214;3.270;2022-10-26T00:07:06;410.30;2355.20
16491;DHT22;8356;51.214;3.270;2022-10-26T00:09:31;410.30;2355.20
16491;DHT22;8356;51.214;3.270;2022-10-26T00:11:57;410.30;2355.20
16491;DHT22;8356;51.214;3.270;2022-10-26T00:14:22;410.30;2355.20
16491;DHT22;8356;51.214;3.270;2022-10-26T00:16:48;410.30;2355.20
16491;DHT22;8356;51.214;3.270;2022-10-26T00:19:14;410.30;2355.20
16491;DHT22;8356;51.214;3.270;2022-10-26T00:21:39;410.20;2355.20
16491;DHT22;8356;51.214;3.270;2022-10-26T00:24:05;410.20;2355.20
16491;DHT22;8356;51.214;3.270;2022-10-26T00:26:31;410.20;2355.20
16491;DHT22;8356;51.214;3.270;2022-10-26T00:28:56;410.20;2355.20
16491;DHT22;8356;51.214;3.270;2022-10-26T00:31:23;410.20;2355.20
16491;DHT22;8356;51.214;3.270;2022-10-26T00:33:55;410.20;2355.20
16491;DHT22;8356;51.214;3.270;2022-10-26T00:36:22;410.10;2355.20
16491;DHT22;8356;51.214;3.270;2022-10-26T00:38:52;410.20;2355.20
16491;DHT22;8356;51.214;3.270;2022-10-26T00:41:21;410.20;2355.20
16491;DHT22;8356;51.214;3.270;2022-10-26T00:43:47;410.10;2355.20
16491;DHT22;8356;51.214;3.270;2022-10-26T00:46:17;410.10;2355.20
16491;DHT22;8356;51.214;3.270;2022-10-26T00:48:48;410.00;2355.20
16491;DHT22;8356;51.214;3.270;2022-10-26T00:51:22;410.00;2355.20
16491;DHT22;8356;51.214;3.270;2022-10-26T00:53:49;409.90;2355.20
16491;DHT22;8356;51.214;3.270;2022-10-26T00:56:15;409.90;2355.20
16491;DHT22;8356;51.214;3.270;2022-10-26T00:58:42;409.90;2355.20
16491;DHT22;8356;51.214;3.270;2022-10-26T01:01:08;409.90;2355.20
16491;DHT22;8356;51.214;3.270;2022-10-26T01:03:35;409.90;2355.20
16491;DHT22;8356;51.214;3.270;2022-10-26T01:06:02;409.90;2355.20
16491;DHT22;8356;51.214;3.270;2022-10-26T01:08:28;409.80;2355.20
16491;DHT22;8356;51.214;3.270;2022-10-26T01:10:56;409.80;2355.20
16491;DHT22;8356;51.214;3.270;2022-10-26T01:13:24;409.80;2355.20
16491;DHT22;8356;51.214;3.270;2022-10-26T01:19:02;409.80;2355.20
16491;DHT22;8356;51.214;3.270;2022-10-26T01:25:23;409.80;2355.20
16491;DHT22;8356;51.214;3.270;2022-10-26T01:27:35;409.80;2355.20
16491;DHT22;8356;51.214;3.270;2022-10-26T01:35:54;409.80;2355.20
16491;DHT22;8356;51.214;3.270;2022-10-26T01:43:45;409.60;2355.20
16491;DHT22;8356;51.214;3.270;2022-10-26T01:46:15;409.80;2355.20
16491;DHT22;8356;51.214;3.270;2022-10-26T01:48:42;409.70;2355.20
16491;DHT22;8356;51.214;3.270;2022-10-26T01:51:10;409.80;2355.20
16491;DHT22;8356;51.214;3.270;2022-10-26T01:53:42;409.80;2355.20
16491;DHT22;8356;51.214;3.270;2022-10-26T01:56:13;409.80;2355.20
16491;DHT22;8356;51.214;3.270;2022-10-26T02:07:15;409.90;2355.20
16491;DHT22;8356;51.214;3.270;2022-10-26T02:14:56;409.90;2355.20
16491;DHT22;8356;51.214;3.270;2022-10-26T02:20:03;410.00;2355.20
16491;DHT22;8356;51.214;3.270;2022-10-26T02:22:38;410.00;2355.20
16491;DHT22;8356;51.214;3.270;2022-10-26T02:25:10;409.90;2355.20
16491;DHT22;8356;51.214;3.270;2022-10-26T02:27:41;410.00;2355.20
16491;DHT22;8356;51.214;3.270;2022-10-26T02:30:09;410.00;2355.20
16491;DHT22;8356;51.214;3.270;2022-10-26T02:32:39;410.00;2355.20
16491;DHT22;8356;51.214;3.270;2022-10-26T02:35:06;410.00;2355.20
16491;DHT22;8356;51.214;3.270;2022-10-26T02:37:33;410.00;2355.20
16491;DHT22;8356;51.214;3.270;2022-10-26T02:40:04;410.00;2355.20
16491;DHT22;8356;51.214;3.270;2022-10-26T02:42:31;410.10;2355.20
16491;DHT22;8356;51.214;3.270;2022-10-26T02:45:02;410.00;2355.20
16491;DHT22;8356;51.214;3.270;2022-10-26T02:47:29;410.00;2355.20
16491;DHT22;8356;51.214;3.270;2022-10-26T02:49:55;409.90;2355.20
16491;DHT22;8356;51.214;3.270;2022-10-26T02:55:16;410.00;2355.20
16491;DHT22;8356;51.214;3.270;2022-10-26T02:57:59;410.00;2355.20
16491;DHT22;8356;51.214;3.270;2022-10-26T03:00:26;410.00;2355.20
16491;DHT22;8356;51.214;3.270;2022-10-26T03:02:56;410.00;2355.20
16491;DHT22;8356;51.214;3.270;2022-10-26T03:05:27;410.00;2355.20
16491;DHT22;8356;51.214;3.270;2022-10-26T03:07:54;410.00;2355.20
16491;DHT22;8356;51.214;3.270;2022-10-26T03:10:21;410.00;2355.20
16491;DHT22;8356;51.214;3.270;2022-10-26T03:12:47;410.00;2355.20
16491;DHT22;8356;51.214;3.270;2022-10-26T03:15:12;410.00;2355.20
16491;DHT22;8356;51.214;3.270;2022-10-26T03:17:38;410.00;2355.20
16491;DHT22;8356;51.214;3.270;2022-10-26T03:20:04;410.10;2355.20
16491;DHT22;8356;51.214;3.270;2022-10-26T03:22:30;410.20;2355.20
16491;DHT22;8356;51.214;3.270;2022-10-26T03:24:55;410.20;2355.20
16491;DHT22;8356;51.214;3.270;2022-10-26T03:27:21;410.20;2355.20
16491;DHT22;8356;51.214;3.270;2022-10-26T03:29:47;410.20;2355.20
16491;DHT22;8356;51.214;3.270;2022-10-26T03:32:13;410.10;2355.20
16491;DHT22;8356;51.214;3.270;2022-10-26T03:34:38;410.10;2355.20
16491;DHT22;8356;51.214;3.270;2022-10-26T03:37:04;410.00;2355.20
16491;DHT22;8356;51.214;3.270;2022-10-26T03:39:30;410.00;2355.20
16491;DHT22;8356;51.214;3.270;2022-10-26T03:41:55;410.10;2355.20
16491;DHT22;8356;51.214;3.270;2022-10-26T03:44:21;410.10;2355.20
16491;DHT22;8356;51.214;3.270;2022-10-26T03:46:47;410.10;2355.20
16491;DHT22;8356;51.214;3.270;2022-10-26T03:49:12;410.10;2355.20
16491;DHT22;8356;51.214;3.270;2022-10-26T03:51:38;410.00;2355.20
16491;DHT22;8356;51.214;3.270;2022-10-26T03:54:04;410.10;2355.20
16491;DHT22;8356;51.214;3.270;2022-10-26T03:56:30;410.10;2355.20
16491;DHT22;8356;51.214;3.270;2022-10-26T03:58:55;410.20;2355.20
16491;DHT22;8356;51.214;3.270;2022-10-26T04:01:21;410.10;2355.20
16491;DHT22;8356;51.214;3.270;2022-10-26T04:03:46;410.10;2355.20
16491;DHT22;8356;51.214;3.270;2022-10-26T04:06:12;410.10;2355.20
16491;DHT22;8356;51.214;3.270;2022-10-26T04:08:38;410.20;2355.20
16491;DHT22;8356;51.214;3.270;2022-10-26T04:11:04;410.20;2355.20
16491;DHT22;8356;51.214;3.270;2022-10-26T04:13:30;410.20;2355.20
16491;DHT22;8356;51.214;3.270;2022-10-26T04:15:56;410.20;2355.20
16491;DHT22;8356;51.214;3.270;2022-10-26T04:18:21;410.30;2355.20
16491;DHT22;8356;51.214;3.270;2022-10-26T04:20:47;410.30;2355.20
16491;DHT22;8356;51.214;3.270;2022-10-26T04:23:14;410.30;2355.20
16491;DHT22;8356;51.214;3.270;2022-10-26T04:25:41;410.30;2355.20
16491;DHT22;8356;51.214;3.270;2022-10-26T04:28:08;410.40;2355.20
16491;DHT22;8356;51.214;3.270;2022-10-26T04:30:35;410.50;2355.20
16491;DHT22;8356;51.214;3.270;2022-10-26T04:33:01;409.60;2355.20
16491;DHT22;8356;51.214;3.270;2022-10-26T04:35:28;410.50;2355.20
16491;DHT22;8356;51.214;3.270;2022-10-26T04:38:00;410.50;2355.20
16491;DHT22;8356;51.214;3.270;2022-10-26T04:40:27;410.50;2355.20
16491;DHT22;8356;51.214;3.270;2022-10-26T04:42:53;435.20;2355.20
16491;DHT22;8356;51.214;3.270;2022-10-26T04:45:19;435.20;2355.20
16491;DHT22;8356;51.214;3.270;2022-10-26T04:47:45;435.20;2355.20
16491;DHT22;8356;51.214;3.270;2022-10-26T04:50:12;435.20;2355.20
16491;DHT22;8356;51.214;3.270;2022-10-26T04:52:38;435.20;2355.20
16491;DHT22;8356;51.214;3.270;2022-10-26T04:55:04;435.20;2355.20
16491;DHT22;8356;51.214;3.270;2022-10-26T04:57:34;435.20;2355.20
16491;DHT22;8356;51.214;3.270;2022-10-26T05:00:02;435.20;2355.20
16491;DHT22;8356;51.214;3.270;2022-10-26T05:02:28;435.20;2355.20
16491;DHT22;8356;51.214;3.270;2022-10-26T05:04:54;435.20;2355.20
16491;DHT22;8356;51.214;3.270;2022-10-26T05:07:20;435.20;2355.20
16491;DHT22;8356;51.214;3.270;2022-10-26T05:09:45;435.20;2355.20
16491;DHT22;8356;51.214;3.270;2022-10-26T05:12:11;410.50;2355.20
16491;DHT22;8356;51.214;3.270;2022-10-26T05:14:37;410.50;2355.20
16491;DHT22;8356;51.214;3.270;2022-10-26T05:17:02;410.50;2355.20
16491;DHT22;8356;51.214;3.270;2022-10-26T05:19:28;410.50;2355.20
16491;DHT22;8356;51.214;3.270;2022-10-26T05:21:53;410.50;2355.20
16491;DHT22;8356;51.214;3.270;2022-10-26T05:24:19;410.40;2355.20
16491;DHT22;8356;51.214;3.270;2022-10-26T05:26:45;410.40;2355.20
16491;DHT22;8356;51.214;3.270;2022-10-26T05:29:10;410.40;2355.20
16491;DHT22;8356;51.214;3.270;2022-10-26T05:31:36;410.40;2355.20
16491;DHT22;8356;51.214;3.270;2022-10-26T05:34:02;410.30;2355.20
16491;DHT22;8356;51.214;3.270;2022-10-26T05:36:27;410.30;2355.20
16491;DHT22;8356;51.214;3.270;2022-10-26T05:38:57;410.30;2355.20
16491;DHT22;8356;51.214;3.270;2022-10-26T05:41:22;410.30;2355.20
16491;DHT22;8356;51.214;3.270;2022-10-26T05:43:48;410.30;2355.20
16491;DHT22;8356;51.214;3.270;2022-10-26T05:46:14;410.30;2355.20
16491;DHT22;8356;51.214;3.270;2022-10-26T05:48:39;410.30;2355.20
16491;DHT22;8356;51.214;3.270;2022-10-26T05:51:05;410.30;2355.20
16491;DHT22;8356;51.214;3.270;2022-10-26T05:53:30;410.30;2355.20
16491;DHT22;8356;51.214;3.270;2022-10-26T05:55:56;410.20;2355.20
16491;DHT22;8356;51.214;3.270;2022-10-26T05:58:22;410.20;2355.20
16491;DHT22;8356;51.214;3.270;2022-10-26T06:06:12;410.20;2355.20
16491;DHT22;8356;51.214;3.270;2022-10-26T06:08:38;410.20;2355.20
16491;DHT22;8356;51.214;3.270;2022-10-26T06:11:04;410.20;2355.20
16491;DHT22;8356;51.214;3.270;2022-10-26T06:13:31;410.20;2355.20
16491;DHT22;8356;51.214;3.270;2022-10-26T06:16:09;410.20;2355.20
16491;DHT22;8356;51.214;3.270;2022-10-26T06:24:06;410.20;2355.20
16491;DHT22;8356;51.214;3.270;2022-10-26T06:26:57;410.20;2355.20
16491;DHT22;8356;51.214;3.270;2022-10-26T06:32:02;410.10;2355.20
16491;DHT22;8356;51.214;3.270;2022-10-26T06:34:32;410.00;2355.20
16491;DHT22;8356;51.214;3.270;2022-10-26T06:37:00;410.00;2355.20
16491;DHT22;8356;51.214;3.270;2022-10-26T06:39:28;410.00;2355.20
16491;DHT22;8356;51.214;3.270;2022-10-26T06:41:58;410.00;2355.20
16491;DHT22;8356;51.214;3.270;2022-10-26T06:44:24;410.10;2355.20
16491;DHT22;8356;51.214;3.270;2022-10-26T06:52:45;410.20;2355.20
16491;DHT22;8356;51.214;3.270;2022-10-26T06:55:14;410.20;2355.20
16491;DHT22;8356;51.214;3.270;2022-10-26T06:57:41;410.20;2355.20
16491;DHT22;8356;51.214;3.270;2022-10-26T07:00:19;410.20;2355.20
16491;DHT22;8356;51.214;3.270;2022-10-26T07:02:45;410.20;2355.20
16491;DHT22;8356;51.214;3.270;2022-10-26T07:05:11;410.20;2355.20
16491;DHT22;8356;51.214;3.270;2022-10-26T07:07:45;410.20;2355.20
16491;DHT22;8356;51.214;3.270;2022-10-26T07:10:12;410.20;2355.20
16491;DHT22;8356;51.214;3.270;2022-10-26T07:12:37;410.20;2355.20
16491;DHT22;8356;51.214;3.270;2022-10-26T07:15:04;410.20;2355.20
16491;DHT22;8356;51.214;3.270;2022-10-26T07:17:30;410.30;2355.20
16491;DHT22;8356;51.214;3.270;2022-10-26T07:19:56;410.30;2355.20
16491;DHT22;8356;51.214;3.270;2022-10-26T07:22:22;410.30;2355.20
16491;DHT22;8356;51.214;3.270;2022-10-26T07:24:49;410.40;2355.20
16491;DHT22;8356;51.214;3.270;2022-10-26T07:27:16;410.30;2355.20
16491;DHT22;8356;51.214;3.270;2022-10-26T07:29:44;435.70;2355.20
16491;DHT22;8356;51.214;3.270;2022-10-26T07:32:10;410.50;2355.20
16491;DHT22;8356;51.214;3.270;2022-10-26T07:34:35;410.50;2355.20
16491;DHT22;8356;51.214;3.270;2022-10-26T07:37:01;410.50;2355.20
16491;DHT22;8356;51.214;3.270;2022-10-26T07:39:27;435.20;2355.20
16491;DHT22;8356;51.214;3.270;2022-10-26T07:41:53;435.30;2355.20
16491;DHT22;8356;51.214;3.270;2022-10-26T07:44:18;435.50;2355.20
16491;DHT22;8356;51.214;3.270;2022-10-26T07:46:44;435.50;2355.20
16491;DHT22;8356;51.214;3.270;2022-10-26T07:49:10;435.60;2355.20
16491;DHT22;8356;51.214;3.270;2022-10-26T07:51:36;435.60;2355.20
16491;DHT22;8356;51.214;3.270;2022-10-26T07:54:02;435.60;2355.20
16491;DHT22;8356;51.214;3.270;2022-10-26T07:56:28;435.80;2355.20
16491;DHT22;8356;51.214;3.270;2022-10-26T07:58:54;435.80;2355.20
16491;DHT22;8356;51.214;3.270;2022-10-26T08:01:20;435.80;2355.20
16491;DHT22;8356;51.214;3.270;2022-10-26T08:03:46;435.90;2355.20
16491;DHT22;8356;51.214;3.270;2022-10-26T08:06:12;435.90;2355.20
16491;DHT22;8356;51.214;3.270;2022-10-26T08:08:38;436.00;2355.20
16491;DHT22;8356;51.214;3.270;2022-10-26T08:11:04;436.10;2355.20
16491;DHT22;8356;51.214;3.270;2022-10-26T08:13:30;436.10;2355.20
16491;DHT22;8356;51.214;3.270;2022-10-26T08:16:01;435.80;2355.20
16491;DHT22;8356;51.214;3.270;2022-10-26T08:18:27;460.80;2380.80
16491;DHT22;8356;51.214;3.270;2022-10-26T08:20:53;460.90;2380.80
16491;DHT22;8356;51.214;3.270;2022-10-26T08:23:20;461.00;2380.80
16491;DHT22;8356;51.214;3.270;2022-10-26T08:25:46;461.10;2380.80
16491;DHT22;8356;51.214;3.270;2022-10-26T08:28:13;461.10;2380.80
16491;DHT22;8356;51.214;3.270;2022-10-26T08:30:39;461.20;2380.80
16491;DHT22;8356;51.214;3.270;2022-10-26T08:33:06;461.20;2380.80
16491;DHT22;8356;51.214;3.270;2022-10-26T08:35:33;461.40;2380.80
16491;DHT22;8356;51.214;3.270;2022-10-26T08:37:58;461.50;2380.80
16491;DHT22;8356;51.214;3.270;2022-10-26T08:40:27;461.70;2380.80
16491;DHT22;8356;51.214;3.270;2022-10-26T08:42:59;486.40;2380.80
16491;DHT22;8356;51.214;3.270;2022-10-26T08:45:32;486.50;2380.80
16491;DHT22;8356;51.214;3.270;2022-10-26T08:48:08;486.60;2380.80
16491;DHT22;8356;51.214;3.270;2022-10-26T08:50:45;486.60;2380.80
16491;DHT22;8356;51.214;3.270;2022-10-26T08:53:57;486.70;2380.80
16491;DHT22;8356;51.214;3.270;2022-10-26T08:56:31;486.80;2380.80
16491;DHT22;8356;51.214;3.270;2022-10-26T09:02:03;486.80;2380.80
16491;DHT22;8356;51.214;3.270;2022-10-26T09:04:35;486.80;2380.80
16491;DHT22;8356;51.214;3.270;2022-10-26T09:07:11;486.90;2380.80
16491;DHT22;8356;51.214;3.270;2022-10-26T09:15:42;487.00;2380.80
16491;DHT22;8356;51.214;3.270;2022-10-26T09:29:06;512.10;2380.80
16491;DHT22;8356;51.214;3.270;2022-10-26T09:31:40;512.20;2380.80
16491;DHT22;8356;51.214;3.270;2022-10-26T09:34:07;512.40;2380.80
16491;DHT22;8356;51.214;3.270;2022-10-26T09:36:38;512.60;2380.80
16491;DHT22;8356;51.214;3.270;2022-10-26T09:39:48;512.60;2380.80
16491;DHT22;8356;51.214;3.270;2022-10-26T09:45:19;512.60;2380.80
16491;DHT22;8356;51.214;3.270;2022-10-26T09:47:50;512.80;2380.80
16491;DHT22;8356;51.214;3.270;2022-10-26T09:50:36;512.90;2380.80
16491;DHT22;8356;51.214;3.270;2022-10-26T09:53:04;537.60;2406.40
16491;DHT22;8356;51.214;3.270;2022-10-26T09:55:33;537.60;2406.40
16491;DHT22;8356;51.214;3.270;2022-10-26T09:58:05;537.70;2406.40
16491;DHT22;8356;51.214;3.270;2022-10-26T10:00:37;537.80;2406.40
16491;DHT22;8356;51.214;3.270;2022-10-26T10:03:20;537.80;2406.40
16491;DHT22;8356;51.214;3.270;2022-10-26T10:05:45;537.70;2406.40
16491;DHT22;8356;51.214;3.270;2022-10-26T10:11:06;512.90;2380.80
16491;DHT22;8356;51.214;3.270;2022-10-26T10:13:35;512.90;2380.80
16491;DHT22;8356;51.214;3.270;2022-10-26T10:16:04;537.60;2406.40
16491;DHT22;8356;51.214;3.270;2022-10-26T10:18:31;537.70;2406.40
16491;DHT22;8356;51.214;3.270;2022-10-26T10:20:57;537.70;2406.40
16491;DHT22;8356;51.214;3.270;2022-10-26T10:23:30;512.90;2380.80
16491;DHT22;8356;51.214;3.270;2022-10-26T10:26:06;537.80;2406.40
16491;DHT22;8356;51.214;3.270;2022-10-26T10:28:33;537.80;2406.40
16491;DHT22;8356;51.214;3.270;2022-10-26T10:31:02;537.80;2406.40
16491;DHT22;8356;51.214;3.270;2022-10-26T10:33:32;537.90;2406.40
16491;DHT22;8356;51.214;3.270;2022-10-26T10:36:04;537.90;2406.40
16491;DHT22;8356;51.214;3.270;2022-10-26T10:38:42;538.00;2406.40
16491;DHT22;8356;51.214;3.270;2022-10-26T10:41:20;538.10;2406.40
16491;DHT22;8356;51.214;3.270;2022-10-26T10:44:06;538.30;2406.40
16491;DHT22;8356;51.214;3.270;2022-10-26T10:46:32;538.30;2406.40
16491;DHT22;8356;51.214;3.270;2022-10-26T10:49:04;538.40;2406.40
16491;DHT22;8356;51.214;3.270;2022-10-26T10:51:35;538.30;2406.40
16491;DHT22;8356;51.214;3.270;2022-10-26T10:54:04;538.40;2406.40
16491;DHT22;8356;51.214;3.270;2022-10-26T10:56:46;538.40;2406.40
16491;DHT22;8356;51.214;3.270;2022-10-26T11:04:52;538.50;2406.40
16491;DHT22;8356;51.214;3.270;2022-10-26T11:07:24;563.30;2432.00
16491;DHT22;8356;51.214;3.270;2022-10-26T11:09:53;563.20;2432.00
16491;DHT22;8356;51.214;3.270;2022-10-26T11:12:29;563.20;2432.00
16491;DHT22;8356;51.214;3.270;2022-10-26T11:15:01;563.20;2432.00
16491;DHT22;8356;51.214;3.270;2022-10-26T11:17:33;563.30;2432.00
16491;DHT22;8356;51.214;3.270;2022-10-26T11:20:09;563.40;2432.00
16491;DHT22;8356;51.214;3.270;2022-10-26T11:22:43;563.40;2432.00
16491;DHT22;8356;51.214;3.270;2022-10-26T11:25:35;563.40;2432.00
16491;DHT22;8356;51.214;3.270;2022-10-26T11:28:48;563.40;2432.00
16491;DHT22;8356;51.214;3.270;2022-10-26T11:31:20;563.50;2432.00
16491;DHT22;8356;51.214;3.270;2022-10-26T11:34:15;563.40;2432.00
16491;DHT22;8356;51.214;3.270;2022-10-26T11:36:43;563.60;2432.00
16491;DHT22;8356;51.214;3.270;2022-10-26T11:39:27;563.60;2432.00
16491;DHT22;8356;51.214;3.270;2022-10-26T11:44:56;563.60;2432.00
16491;DHT22;8356;51.214;3.270;2022-10-26T11:47:29;563.60;2432.00
16491;DHT22;8356;51.214;3.270;2022-10-26T11:50:11;563.70;2432.00
16491;DHT22;8356;51.214;3.270;2022-10-26T11:52:42;563.60;2432.00
16491;DHT22;8356;51.214;3.270;2022-10-26T11:55:10;563.60;2432.00
16491;DHT22;8356;51.214;3.270;2022-10-26T11:57:36;563.70;2432.00
16491;DHT22;8356;51.214;3.270;2022-10-26T12:02:39;563.80;2432.00
16491;DHT22;8356;51.214;3.270;2022-10-26T12:08:03;563.80;2432.00
16491;DHT22;8356;51.214;3.270;2022-10-26T12:10:35;563.90;2432.00
16491;DHT22;8356;51.214;3.270;2022-10-26T12:13:24;563.90;2432.00
16491;DHT22;8356;51.214;3.270;2022-10-26T12:15:57;563.90;2432.00
16491;DHT22;8356;51.214;3.270;2022-10-26T12:18:36;563.90;2432.00
16491;DHT22;8356;51.214;3.270;2022-10-26T12:21:06;563.90;2432.00
16491;DHT22;8356;51.214;3.270;2022-10-26T12:23:37;564.00;2432.00
16491;DHT22;8356;51.214;3.270;2022-10-26T12:33:57;564.00;2432.00
16491;DHT22;8356;51.214;3.270;2022-10-26T12:39:29;564.10;2432.00
16491;DHT22;8356;51.214;3.270;2022-10-26T12:44:34;564.10;2432.00
16491;DHT22;8356;51.214;3.270;2022-10-26T12:47:00;564.10;2432.00
16491;DHT22;8356;51.214;3.270;2022-10-26T12:52:50;564.10;2432.00
16491;DHT22;8356;51.214;3.270;2022-10-26T12:55:51;564.10;2432.00
16491;DHT22;8356;51.214;3.270;2022-10-26T12:58:36;563.90;2432.00
16491;DHT22;8356;51.214;3.270;2022-10-26T13:09:19;563.80;2432.00
16491;DHT22;8356;51.214;3.270;2022-10-26T13:11:47;563.80;2432.00
16491;DHT22;8356;51.214;3.270;2022-10-26T13:14:38;563.60;2432.00
16491;DHT22;8356;51.214;3.270;2022-10-26T13:17:06;563.60;2432.00
16491;DHT22;8356;51.214;3.270;2022-10-26T13:19:47;563.60;2432.00
16491;DHT22;8356;51.214;3.270;2022-10-26T13:22:16;563.50;2432.00
16491;DHT22;8356;51.214;3.270;2022-10-26T13:24:56;563.40;2432.00
16491;DHT22;8356;51.214;3.270;2022-10-26T13:32:50;563.60;2432.00
16491;DHT22;8356;51.214;3.270;2022-10-26T13:35:17;563.60;2432.00
16491;DHT22;8356;51.214;3.270;2022-10-26T13:37:46;563.60;2432.00
16491;DHT22;8356;51.214;3.270;2022-10-26T13:40:16;563.80;2432.00
16491;DHT22;8356;51.214;3.270;2022-10-26T13:42:49;563.80;2432.00
16491;DHT22;8356;51.214;3.270;2022-10-26T13:45:40;563.80;2432.00
16491;DHT22;8356;51.214;3.270;2022-10-26T13:48:17;563.80;2432.00
16491;DHT22;8356;51.214;3.270;2022-10-26T13:50:50;563.70;2432.00
16491;DHT22;8356;51.214;3.270;2022-10-26T13:53:24;563.60;2432.00
16491;DHT22;8356;51.214;3.270;2022-10-26T13:56:00;563.60;2432.00
16491;DHT22;8356;51.214;3.270;2022-10-26T13:58:49;563.60;2432.00
16491;DHT22;8356;51.214;3.270;2022-10-26T14:01:18;563.50;2432.00
16491;DHT22;8356;51.214;3.270;2022-10-26T14:03:48;563.50;2432.00
16491;DHT22;8356;51.214;3.270;2022-10-26T14:06:35;563.50;2432.00
16491;DHT22;8356;51.214;3.270;2022-10-26T14:09:04;563.60;2432.00
16491;DHT22;8356;51.214;3.270;2022-10-26T14:11:39;563.60;2432.00
16491;DHT22;8356;51.214;3.270;2022-10-26T14:14:19;563.60;2432.00
16491;DHT22;8356;51.214;3.270;2022-10-26T14:16:48;563.60;2432.00
16491;DHT22;8356;51.214;3.270;2022-10-26T14:19:25;563.60;2432.00
16491;DHT22;8356;51.214;3.270;2022-10-26T14:21:51;563.60;2432.00
16491;DHT22;8356;51.214;3.270;2022-10-26T14:24:27;563.60;2432.00
16491;DHT22;8356;51.214;3.270;2022-10-26T14:26:53;563.60;2432.00
16491;DHT22;8356;51.214;3.270;2022-10-26T14:29:24;563.60;2432.00
16491;DHT22;8356;51.214;3.270;2022-10-26T14:31:50;563.70;2432.00
16491;DHT22;8356;51.214;3.270;2022-10-26T14:34:17;563.60;2432.00
16491;DHT22;8356;51.214;3.270;2022-10-26T14:36:54;563.70;2432.00
16491;DHT22;8356;51.214;3.270;2022-10-26T14:39:29;563.70;2432.00
16491;DHT22;8356;51.214;3.270;2022-10-26T14:41:56;563.60;2432.00
16491;DHT22;8356;51.214;3.270;2022-10-26T14:44:23;563.60;2432.00
16491;DHT22;8356;51.214;3.270;2022-10-26T14:46:50;563.60;2432.00
16491;DHT22;8356;51.214;3.270;2022-10-26T14:49:19;563.60;2432.00
16491;DHT22;8356;51.214;3.270;2022-10-26T14:51:46;563.50;2432.00
16491;DHT22;8356;51.214;3.270;2022-10-26T14:54:25;563.40;2432.00
16491;DHT22;8356;51.214;3.270;2022-10-26T14:56:52;563.40;2432.00
16491;DHT22;8356;51.214;3.270;2022-10-26T15:01:53;563.40;2432.00
16491;DHT22;8356;51.214;3.270;2022-10-26T15:07:15;563.20;2432.00
16491;DHT22;8356;51.214;3.270;2022-10-26T15:09:49;563.20;2432.00
16491;DHT22;8356;51.214;3.270;2022-10-26T15:12:19;538.40;2406.40
16491;DHT22;8356;51.214;3.270;2022-10-26T15:14:45;538.40;2406.40
16491;DHT22;8356;51.214;3.270;2022-10-26T15:17:38;538.50;2406.40
16491;DHT22;8356;51.214;3.270;2022-10-26T15:20:06;538.50;2406.40
16491;DHT22;8356;51.214;3.270;2022-10-26T15:22:33;538.50;2406.40
16491;DHT22;8356;51.214;3.270;2022-10-26T15:25:02;563.30;2432.00
16491;DHT22;8356;51.214;3.270;2022-10-26T15:27:29;538.40;2406.40
16491;DHT22;8356;51.214;3.270;2022-10-26T15:30:22;563.20;2432.00
16491;DHT22;8356;51.214;3.270;2022-10-26T15:32:50;538.50;2406.40
16491;DHT22;8356;51.214;3.270;2022-10-26T15:37:44;538.40;2406.40
16491;DHT22;8356;51.214;3.270;2022-10-26T15:40:11;538.30;2406.40
16491;DHT22;8356;51.214;3.270;2022-10-26T15:42:38;538.20;2406.40
16491;DHT22;8356;51.214;3.270;2022-10-26T15:47:42;538.20;2406.40
16491;DHT22;8356;51.214;3.270;2022-10-26T15:50:13;538.20;2406.40
16491;DHT22;8356;51.214;3.270;2022-10-26T15:52:38;538.20;2406.40
16491;DHT22;8356;51.214;3.270;2022-10-26T15:55:05;538.20;2406.40
16491;DHT22;8356;51.214;3.270;2022-10-26T15:57:30;538.20;2406.40
16491;DHT22;8356;51.214;3.270;2022-10-26T15:59:56;538.20;2406.40
16491;DHT22;8356;51.214;3.270;2022-10-26T16:02:21;538.10;2406.40
16491;DHT22;8356;51.214;3.270;2022-10-26T16:04:47;538.10;2406.40
16491;DHT22;8356;51.214;3.270;2022-10-26T16:07:14;538.10;2406.40
16491;DHT22;8356;51.214;3.270;2022-10-26T16:09:41;538.10;2406.40
16491;DHT22;8356;51.214;3.270;2022-10-26T16:12:09;538.10;2406.40
16491;DHT22;8356;51.214;3.270;2022-10-26T16:14:36;538.50;2406.40
16491;DHT22;8356;51.214;3.270;2022-10-26T16:17:01;538.10;2406.40
16491;DHT22;8356;51.214;3.270;2022-10-26T16:19:27;538.10;2406.40
16491;DHT22;8356;51.214;3.270;2022-10-26T16:21:53;538.10;2406.40
16491;DHT22;8356;51.214;3.270;2022-10-26T16:24:19;538.00;2406.40
16491;DHT22;8356;51.214;3.270;2022-10-26T16:26:45;537.90;2406.40
16491;DHT22;8356;51.214;3.270;2022-10-26T16:29:11;537.80;2406.40
16491;DHT22;8356;51.214;3.270;2022-10-26T16:31:36;537.70;2406.40
16491;DHT22;8356;51.214;3.270;2022-10-26T16:34:02;537.70;2406.40
16491;DHT22;8356;51.214;3.270;2022-10-26T16:36:28;537.60;2406.40
16491;DHT22;8356;51.214;3.270;2022-10-26T16:38:53;512.90;2380.80
16491;DHT22;8356;51.214;3.270;2022-10-26T16:41:19;512.90;2380.80
16491;DHT22;8356;51.214;3.270;2022-10-26T16:43:45;512.90;2380.80
16491;DHT22;8356;51.214;3.270;2022-10-26T16:46:15;512.80;2380.80
16491;DHT22;8356;51.214;3.270;2022-10-26T16:48:43;512.80;2380.80
16491;DHT22;8356;51.214;3.270;2022-10-26T16:51:12;512.70;2380.80
16491;DHT22;8356;51.214;3.270;2022-10-26T16:53:38;512.70;2380.80
16491;DHT22;8356;51.214;3.270;2022-10-26T16:56:05;512.60;2380.80
16491;DHT22;8356;51.214;3.270;2022-10-26T16:58:32;512.60;2380.80
16491;DHT22;8356;51.214;3.270;2022-10-26T17:00:58;512.50;2380.80
16491;DHT22;8356;51.214;3.270;2022-10-26T17:03:24;512.50;2380.80
16491;DHT22;8356;51.214;3.270;2022-10-26T17:06:03;512.40;2380.80
16491;DHT22;8356;51.214;3.270;2022-10-26T17:08:30;512.50;2380.80
16491;DHT22;8356;51.214;3.270;2022-10-26T17:11:05;512.40;2380.80
16491;DHT22;8356;51.214;3.270;2022-10-26T17:13:31;512.30;2380.80
16491;DHT22;8356;51.214;3.270;2022-10-26T17:16:23;512.30;2380.80
16491;DHT22;8356;51.214;3.270;2022-10-26T17:18:50;512.20;2380.80
16491;DHT22;8356;51.214;3.270;2022-10-26T17:21:18;512.20;2380.80
16491;DHT22;8356;51.214;3.270;2022-10-26T17:23:45;512.20;2380.80
16491;DHT22;8356;51.214;3.270;2022-10-26T17:26:12;512.20;2380.80
16491;DHT22;8356;51.214;3.270;2022-10-26T17:28:38;512.20;2380.80
16491;DHT22;8356;51.214;3.270;2022-10-26T17:31:09;512.20;2380.80
16491;DHT22;8356;51.214;3.270;2022-10-26T17:33:36;512.20;2380.80
16491;DHT22;8356;51.214;3.270;2022-10-26T17:36:04;512.20;2380.80